createdAt,value
2018-06-08T00:01:29.123Z,20
2018-06-08T00:11:27.818Z,20
2018-06-08T00:21:27.762Z,20
2018-06-08T00:31:27.607Z,20
2018-06-08T00:41:27.660Z,20
2018-06-08T00:51:28.527Z,20
2018-06-08T01:01:28.115Z,20
2018-06-08T01:11:27.845Z,19
2018-06-08T01:21:27.954Z,19
2018-06-08T01:31:28.512Z,19
2018-06-08T01:41:27.320Z,19
2018-06-08T01:51:26.135Z,18
2018-06-08T02:01:27.206Z,19
2018-06-08T02:11:28.261Z,19
2018-06-08T02:21:28.121Z,19
2018-06-08T02:31:27.915Z,18
2018-06-08T02:41:27.985Z,18
2018-06-08T02:51:28.200Z,19
2018-06-08T03:01:28.626Z,18
2018-06-08T03:11:28.503Z,18
2018-06-08T03:21:29.990Z,18
2018-06-08T03:31:27.959Z,18
2018-06-08T03:41:28.188Z,18
2018-06-08T03:51:29.642Z,18
2018-06-08T04:01:27.578Z,18
2018-06-08T04:11:27.665Z,18
2018-06-08T04:21:28.769Z,18
2018-06-08T04:31:28.161Z,19
2018-06-08T04:41:28.076Z,19
2018-06-08T04:51:27.849Z,19
2018-06-08T05:01:28.365Z,19
2018-06-08T05:11:27.208Z,19
2018-06-08T05:21:28.640Z,20
2018-06-08T05:31:27.155Z,20
2018-06-08T05:41:27.936Z,20
2018-06-08T05:51:28.391Z,20
2018-06-08T06:01:27.782Z,20
2018-06-08T06:11:28.289Z,20
2018-06-08T06:21:27.401Z,20
2018-06-08T06:31:27.583Z,21
2018-06-08T06:41:29.059Z,21
2018-06-08T06:51:26.311Z,21
2018-06-08T07:01:27.331Z,22
2018-06-08T07:11:26.745Z,22
2018-06-08T07:21:28.494Z,22
2018-06-08T07:31:27.872Z,22
2018-06-08T07:41:27.900Z,22
2018-06-08T07:51:27.292Z,23
2018-06-08T08:01:27.287Z,23
2018-06-08T08:11:26.102Z,23
2018-06-08T08:21:27.012Z,23
2018-06-08T08:31:27.035Z,23
2018-06-08T08:41:28.247Z,24
2018-06-08T08:51:29.219Z,24
2018-06-08T09:01:27.089Z,24
2018-06-08T09:11:27.061Z,24
2018-06-08T09:21:28.399Z,25
2018-06-08T09:31:26.210Z,24
2018-06-08T09:41:27.284Z,25
2018-06-08T09:51:27.434Z,25
2018-06-08T10:01:26.658Z,25
2018-06-08T10:11:26.801Z,25
2018-06-08T10:21:27.380Z,26
2018-06-08T10:31:26.675Z,25
2018-06-08T10:41:29.291Z,26
2018-06-08T10:51:33.188Z,26
2018-06-08T11:01:27.090Z,26
2018-06-08T11:11:27.829Z,26
2018-06-08T11:21:27.675Z,27
2018-06-08T11:31:27.301Z,27
2018-06-08T11:41:26.087Z,27
2018-06-08T11:51:27.819Z,27
2018-06-08T12:01:28.408Z,27
2018-06-08T12:11:26.638Z,28
2018-06-08T12:21:27.941Z,28
2018-06-08T12:31:29.690Z,28
2018-06-08T12:41:26.595Z,28
2018-06-08T12:51:26.987Z,28
2018-06-08T13:01:27.632Z,28
2018-06-08T13:11:27.607Z,28
2018-06-08T13:21:26.863Z,28
2018-06-08T13:31:27.492Z,29
2018-06-08T13:41:26.414Z,29
2018-06-08T13:51:26.298Z,29
2018-06-08T14:01:26.349Z,29
2018-06-08T14:11:26.363Z,29
2018-06-08T14:21:27.264Z,29
2018-06-08T14:31:28.603Z,29
2018-06-08T14:41:26.901Z,29
2018-06-08T14:51:27.837Z,29
2018-06-08T15:01:27.519Z,30
2018-06-08T15:11:26.788Z,29
2018-06-08T15:21:28.039Z,29
2018-06-08T15:31:27.948Z,29
2018-06-08T15:41:28.396Z,29
2018-06-08T15:51:26.582Z,29
2018-06-08T16:01:26.670Z,29
2018-06-08T16:11:26.656Z,30
2018-06-08T16:21:28.823Z,29
2018-06-08T16:31:27.104Z,28
2018-06-08T16:41:27.588Z,29
2018-06-08T16:51:27.078Z,28
2018-06-08T17:01:27.133Z,29
2018-06-08T17:11:27.309Z,28
2018-06-08T17:21:26.523Z,29
2018-06-08T17:31:26.506Z,28
2018-06-08T17:41:26.808Z,28
2018-06-08T17:51:27.642Z,28
2018-06-08T18:01:26.554Z,28
2018-06-08T18:11:26.794Z,27
2018-06-08T18:21:27.893Z,27
2018-06-08T18:31:26.864Z,27
2018-06-08T18:41:27.127Z,26
2018-06-08T18:51:26.780Z,26
2018-06-08T19:01:27.516Z,26
2018-06-08T19:11:26.793Z,25
2018-06-08T19:21:27.575Z,26
2018-06-08T19:31:26.748Z,26
2018-06-08T19:41:27.230Z,26
2018-06-08T19:51:27.150Z,26
2018-06-08T20:01:27.532Z,25
2018-06-08T20:11:26.366Z,25
2018-06-08T20:21:26.644Z,25
2018-06-08T20:31:26.567Z,25
2018-06-08T20:41:26.777Z,24
2018-06-08T20:51:26.895Z,25
2018-06-08T21:01:27.098Z,25
2018-06-08T21:11:27.623Z,25
2018-06-08T21:21:26.958Z,25
2018-06-08T21:31:26.868Z,24
2018-06-08T21:41:27.154Z,25
2018-06-08T21:51:26.303Z,24
2018-06-08T22:01:28.822Z,25
2018-06-08T22:11:29.540Z,24
2018-06-08T22:21:26.680Z,24
2018-06-08T22:31:27.466Z,24
2018-06-08T22:41:27.899Z,24
2018-06-08T22:51:27.940Z,24
2018-06-08T23:01:27.142Z,23
2018-06-08T23:11:27.182Z,23
2018-06-08T23:21:26.551Z,23
2018-06-08T23:31:26.781Z,23
2018-06-08T23:41:26.923Z,23
2018-06-08T23:51:26.691Z,23
